ホムトヴォ空港(ユジノサハリンスク)の過去48時間の天気

ホムトヴォ空港(ユジノサハリンスク) (Yuzhno-Sakhalinsk)

現在時刻: 2/25 18:16 +10 (2/25 08:16 UTC) 以下の時間は現地時間です。

過去48時間のMETAR気象情報
時間 風向 風速(m/s) 視程 気温(℃) 湿度(%) 気圧(hPa) 天気現象
25 17:30 6 7000m -4 86 1019 弱いしゅう雪
25 17:00 5 10km以上 -3 74 1019 弱いしゅう雪
25 16:30 静穏 0 10km以上 -2 80 1018 弱いしゅう雪
25 16:00 静穏 0 10km以上 -2 86 1018 弱いしゅう雪
25 15:30 西 2 8000m -2 80 1018 弱いしゅう雪
25 15:00 南南西 4 9000m -2 80 1018 弱いしゅう雪
25 14:30 5 10km以上 -2 69 1018
25 14:00 4 10km以上 -3 68 1018
25 13:30 南南東 3 10km以上 -3 80 1019
25 13:00 3 4100m -4 86 1019 弱いしゅう雪
25 12:30 南南西 3 10km以上 -4 63 1020 弱いしゅう雪
25 12:00 南南西 3 10km以上 -4 63 1020
25 11:30 南南西 2 10km以上 -6 63 1020
25 11:00 1 10km以上 -8 62 1020
25 10:30 南南西 1 7000m -11 79 1021
25 10:00 西南西 1 5000m -14 85 1021
25 09:30 北東 1 4800m -13 85 1021
25 09:00 西 1 5000m -18 84 1021
25 08:30 静穏 0 4400m -19 77 1021
25 08:00 北北東 1 4000m -22 84 1021
25 07:30 静穏 0 8000m -23 76 1020
25 07:00 1 10km以上 -23 76 1020
25 06:30 2 10km以上 -22 84 1020
25 06:00 静穏 0 10km以上 -24 84 1020
25 05:30 静穏 0 10km以上 -24 84 1020
25 05:00 静穏 0 10km以上 -24 76 1020
25 04:00 静穏 0 10km以上 -23 76 1019
25 03:00 静穏 0 10km以上 -22 84 1019
25 02:00 静穏 0 10km以上 -21 77 1019
25 01:00 静穏 0 10km以上 -20 84 1018
25 00:00 静穏 0 10km以上 -20 84 1018
24 23:00 東北東 1 10km以上 -17 84 1017
24 22:00 静穏 0 10km以上 -16 78 1017
24 21:00 静穏 0 10km以上 -13 72 1016
24 20:30 静穏 0 10km以上 -11 67 1016
24 20:00 1 10km以上 -8 57 1016
24 19:30 北西 2 10km以上 -7 49 1015
24 19:00 北西 3 10km以上 -6 45 1015
24 18:30 北西 4 10km以上 -5 45 1014
24 18:00 北西 4 10km以上 -4 46 1014
24 17:30 北西 3 10km以上 -4 50 1014
24 17:00 西北西 4 10km以上 -3 50 1013
24 16:30 西北西 4 10km以上 -3 50 1013
24 16:00 西北西 4 10km以上 -2 43 1013
24 15:30 北西 4 10km以上 -2 43 1013
24 15:00 北西 6 10km以上 -2 39 1013
24 14:30 北西 5 10km以上 -2 39 1012
24 14:00 北西 5 10km以上 -2 39 1012
24 13:30 北西 5 10km以上 -2 39 1013
24 13:00 北西 5 10km以上 -3 46 1013
24 12:30 3 10km以上 -3 50 1013
24 12:00 北北東 3 10km以上 -4 54 1013
24 11:30 3 10km以上 -5 58 1013
24 11:00 4 10km以上 -5 58 1013
24 10:30 3 10km以上 -7 68 1013
24 10:00 2 10km以上 -8 73 1013
24 09:30 2 10km以上 -9 79 1013
24 09:00 北北西 2 10km以上 -10 79 1013
24 08:30 静穏 0 10km以上 -15 92 1013
24 08:00 静穏 0 10km以上 -16 85 1013
24 07:30 静穏 0 10km以上 -16 85 1012
24 07:00 北西 1 10km以上 -13 85 1012
24 06:30 北北西 1 10km以上 -13 92 1011
24 06:00 南西 1 10km以上 -10 85 1011
24 05:00 北北西 3 8000m -8 79 1010
24 04:00 北北西 4 10km以上 -6 73 1010 弱いしゅう雪
24 03:00 北北西 2 10km以上 -5 79 1009 弱いしゅう雪
24 02:00 北西 3 10km以上 -4 74 1009 弱いしゅう雪
24 01:00 西北西 2 5000m -4 93 1008 弱いしゅう雪
24 00:00 4 9000m -3 86 1007 弱いしゅう雪
23 23:00 5 8000m -3 86 1007 弱いしゅう雪
23 22:00 北北西 7 6000m -3 86 1006 弱いしゅう雪 低い地吹雪
23 21:30 6 4400m -4 86 1005 弱いしゅう雪 低い地吹雪
23 21:00 9 6000m -4 86 1005 弱いしゅう雪 低い地吹雪
23 20:30 北北西 5 4400m -4 86 1004 弱いしゅう雪 低い地吹雪
23 20:00 北北西 10 3800m -4 93 1004 弱いしゅう雪 高い地吹雪
23 19:30 北北西 10 3200m -4 93 1003 弱いしゅう雪 高い地吹雪
23 19:00 10 2900m -4 93 1002 弱いしゅう雪 高い地吹雪
23 18:30 10 1500m -4 93 1002 高い地吹雪 しゅう雪
UHSS 250730Z 36006MPS 7000 -SHSN SCT035CB M04/M06 Q1019 R01/420255 NOSIG RMK QFE763/1018
UHSS 250700Z 35005MPS 9999 -SHSN SCT045CB M03/M07 Q1019 R01/420255 NOSIG RMK QFE763/1017
UHSS 250630Z 00000MPS 9999 -SHSN SCT041CB M02/M05 Q1018 R19/420255 NOSIG RMK QFE762/1017
UHSS 250600Z 00000MPS 9999 -SHSN SCT036CB M02/M04 Q1018 R19/420255 NOSIG RMK QFE762/1017
UHSS 250530Z 28002MPS 230V310 8000 2200N -SHSN BKN014CB M02/M05 Q1018 R19/420255 NOSIG RMK MT OBSC QFE762/1016
UHSS 250500Z 20004MPS 9000 -SHSN BKN034CB M02/M05 Q1018 R19/420255 NOSIG RMK QFE762/1016
UHSS 250430Z 18005MPS 9999 SCT047CB M02/M07 Q1018 R19/420255 NOSIG RMK QFE762/1016
UHSS 250400Z 18004MPS 9999 FEW040CB M03/M08 Q1018 R19/420255 NOSIG RMK QFE762/1017
UHSS 250330Z 16003MPS 9999 BKN039CB M03/M06 Q1019 R19/420255 NOSIG RMK QFE763/1017
UHSS 250300Z 18003MPS 4100 -SHSN FEW008 OVC029CB M04/M06 Q1019 R19/420255 NOSIG RMK MT OBSC QFE763/1017
UHSS 250230Z 20003MPS 9999 -SHSN BKN025CB M04/M10 Q1020 R01/810260 NOSIG RMK MT OBSC QFE763/1018
UHSS 250200Z 20003MPS 9999 SCT045 M04/M10 Q1020 R01/810260 NOSIG RMK QFE764/1018
UHSS 250130Z 20002MPS 9999 SCT023 M06/M12 Q1020 R01/810260 NOSIG RMK MT OBSC QFE764/1019
UHSS 250100Z 18001MPS 9999 SCT038 M08/M14 Q1020 R01/810260 NOSIG RMK QFE764/1019
UHSS 250030Z 21001MPS 7000 SCT039 M11/M14 Q1021 R01/810260 NOSIG RMK QFE764/1019
UHSS 250000Z 25001MPS 5000 FU SCT039 M14/M16 Q1021 R01/810260 NOSIG RMK QFE764/1019
UHSS 242330Z 04001MPS 4800 FU SCT036 M13/M15 Q1021 R01/810260 NOSIG RMK QFE764/1019
UHSS 242300Z 26001MPS 5000 FU FEW040 M18/M20 Q1021 R01/810260 NOSIG RMK QFE764/1019
UHSS 242230Z 00000MPS 4400 FU FEW040 M19/M22 Q1021 R01/810260 NOSIG RMK QFE764/1019
UHSS 242200Z 03001MPS 4000 FU FEW040 M22/M24 Q1021 R01/810260 NOSIG RMK QFE764/1019
UHSS 242130Z 00000MPS 8000 FEW040 M23/M26 Q1020 R01/810260 NOSIG RMK QFE764/1019
UHSS 242100Z 01001MPS 9999 FEW040 M23/M26 Q1020 R01/810260 NOSIG RMK QFE764/1019
UHSS 242030Z 36002MPS 9999 FEW040 M22/M24 Q1020 R01/810260 NOSIG RMK QFE764/1019
UHSS 242000Z 00000MPS 9999 FEW040 M24/M26 Q1020 R01/810260 NOSIG RMK QFE764/1019
UHSS 241930Z 00000MPS 9999 FEW040 M24/M26 Q1020 R01/810260 NOSIG RMK QFE764/1018
UHSS 241900Z 00000MPS 9999 FEW040 M24/M27 Q1020 R01/810260 NOSIG RMK QFE764/1018
UHSS 241800Z 00000MPS 9999 FEW040 M23/M26 Q1019 R01/810260 NOSIG RMK QFE763/1018
UHSS 241700Z 00000MPS 9999 FEW040 M22/M24 Q1019 R01/810260 NOSIG RMK QFE763/1018
UHSS 241600Z 00000MPS 9999 FEW040 M21/M24 Q1019 R01/810260 NOSIG RMK QFE763/1017
UHSS 241500Z 00000MPS 9999 FEW040 M20/M22 Q1018 R01/810260 NOSIG RMK QFE763/1017
UHSS 241400Z 00000MPS 9999 FEW040 M20/M22 Q1018 R01/810260 NOSIG RMK QFE762/1016
UHSS 241300Z 06001MPS 9999 FEW040 M17/M19 Q1017 R01/810260 NOSIG RMK QFE762/1016
UHSS 241200Z 00000MPS 9999 FEW040 M16/M19 Q1017 R01/810260 NOSIG RMK QFE762/1016
UHSS 241100Z 00000MPS 9999 FEW040 M13/M17 Q1016 R01/810260 NOSIG RMK QFE761/1015
UHSS 241030Z 00000MPS 9999 FEW040 M11/M16 Q1016 R01/810260 NOSIG RMK QFE761/1014
UHSS 241000Z 01001MPS 9999 FEW040 M08/M15 Q1016 R01/810260 NOSIG RMK QFE761/1014
UHSS 240930Z 32002MPS 9999 FEW040 M07/M16 Q1015 R01/810260 NOSIG RMK QFE760/1014
UHSS 240900Z 31003MPS 9999 FEW040 M06/M16 Q1015 R01/810260 NOSIG RMK QFE760/1013
UHSS 240830Z 31004MPS 9999 FEW040 M05/M15 Q1014 R01/810260 NOSIG RMK QFE760/1013
UHSS 240800Z 31004MPS 9999 FEW040 M04/M14 Q1014 R01/810260 NOSIG RMK QFE759/1013
UHSS 240730Z 31003MPS 9999 FEW040 M04/M13 Q1014 R01/810260 NOSIG RMK QFE759/1012
UHSS 240700Z 30004MPS 9999 SCT040 M03/M12 Q1013 R01/810260 NOSIG RMK QFE759/1012
UHSS 240630Z 30004MPS 9999 SCT040 M03/M12 Q1013 R01/810260 NOSIG RMK QFE759/1012
UHSS 240600Z 30004MPS 9999 SCT040 M02/M13 Q1013 R01/810260 NOSIG RMK QFE758/1011
UHSS 240530Z 31004MPS 9999 SCT040 M02/M13 Q1013 R01/810260 NOSIG RMK QFE758/1011
UHSS 240500Z 31006MPS 9999 SCT040 M02/M14 Q1013 R01/810360 NOSIG RMK QFE758/1011
UHSS 240430Z 31005MPS 9999 SCT040 M02/M14 Q1012 R01/810360 NOSIG RMK QFE758/1011
UHSS 240400Z 32005MPS 9999 SCT040 M02/M14 Q1012 R01/810360 NOSIG RMK QFE758/1011
UHSS 240330Z 31005MPS 9999 NSC M02/M14 Q1013 R01/810360 NOSIG RMK QFE758/1011
UHSS 240300Z 31005MPS 9999 NSC M03/M13 Q1013 R01/810360 NOSIG RMK QFE758/1011
UHSS 240230Z 01003MPS 9999 NSC M03/M12 Q1013 R01/810360 NOSIG RMK QFE758/1011
UHSS 240200Z 02003MPS 9999 NSC M04/M12 Q1013 R01/810360 NOSIG RMK QFE759/1012
UHSS 240130Z 01003MPS 9999 NSC M05/M12 Q1013 R01/810360 NOSIG RMK QFE759/1012
UHSS 240100Z 36004MPS 9999 NSC M05/M12 Q1013 R01/810360 NOSIG RMK QFE759/1012
UHSS 240030Z 36003MPS 9999 NSC M07/M12 Q1013 R01/810360 NOSIG RMK QFE759/1012
UHSS 240000Z 36002MPS 9999 NSC M08/M12 Q1013 R01/810360 NOSIG RMK QFE759/1012
UHSS 232330Z 36002MPS 9999 NSC M09/M12 Q1013 R01/810360 NOSIG RMK QFE759/1012
UHSS 232300Z 34002MPS 9999 NSC M10/M13 Q1013 R01/810360 NOSIG RMK QFE759/1012
UHSS 232230Z 00000MPS 9999 NSC M15/M16 Q1013 R01/810360 NOSIG RMK QFE759/1012
UHSS 232200Z 00000MPS 9999 NSC M16/M18 Q1013 R01/810360 NOSIG RMK QFE758/1011
UHSS 232130Z 00000MPS 9999 NSC M16/M18 Q1012 R01/810360 NOSIG RMK QFE758/1011
UHSS 232100Z 31001MPS 9999 FEW040 M13/M15 Q1012 R01/810360 NOSIG RMK QFE758/1010
UHSS 232030Z 34001MPS 9999 SCT040CB M13/M14 Q1011 R01/810360 NOSIG RMK QFE757/1010
UHSS 232000Z 23001MPS 9999 SCT040CB M10/M12 Q1011 R01/810360 NOSIG RMK QFE757/1010
UHSS 231900Z 33003MPS 8000 BKN031CB M08/M11 Q1010 R01/450550 NOSIG RMK MT OBSC QFE756/1009
UHSS 231800Z 34004MPS 9999 -SHSN BKN026CB M06/M10 Q1010 R01/450550 NOSIG RMK MT OBSC QFE756/1008
UHSS 231700Z 33002MPS 9999 -SHSN BKN026CB M05/M08 Q1009 R01/450550 NOSIG RMK MT OBSC QFE756/1008
UHSS 231600Z 32003MPS 9999 -SHSN BKN026CB M04/M08 Q1009 R01/450550 NOSIG RMK MT OBSC QFE756/1008
UHSS 231500Z 29002MPS 5000 -SHSN BKN026CB M04/M05 Q1008 R01/450550 NOSIG RMK MT OBSC QFE755/1007
UHSS 231400Z 01004MPS 9000 -SHSN BKN026CB M03/M05 Q1007 R01/450550 NOSIG RMK MT OBSC QFE754/1006
UHSS 231300Z 35005MPS 8000 -SHSN BKN025CB M03/M05 Q1007 R01/450550 NOSIG RMK MT OBSC QFE754/1005
UHSS 231200Z 34007MPS 6000 -SHSN DRSN BKN030CB M03/M05 Q1006 R01/450550 NOSIG RMK MT OBSC QFE753/1004
UHSS 231130Z 35006MPS 4400 -SHSN DRSN BKN030CB M04/M06 Q1005 R01/450550 NOSIG RMK MT OBSC QFE753/1004
UHSS 231100Z 35009MPS 6000 -SHSN DRSN BKN030CB M04/M06 Q1005 R01/450550 NOSIG RMK MT OBSC QFE752/1003
UHSS 231030Z 34005G10MPS 4400 -SHSN DRSN BKN030CB M04/M06 Q1004 R01/450550 NOSIG RMK MT OBSC QFE752/1003
UHSS 231000Z 34010G15MPS 3800 -SHSN BLSN SCT011 BKN026CB M04/M05 Q1004 R01/491035 NOSIG RMK MT OBSC QFE752/1002
UHSS 230930Z 34010G15MPS 3200 -SHSN BLSN SCT011 BKN026CB M04/M05 Q1003 R01/491035 NOSIG RMK MT OBSC QFE751/1002
UHSS 230900Z 35010G15MPS 2900 -SHSN BLSN BKN016CB M04/M05 Q1002 R01/491035 NOSIG RMK MT OBSC QFE751/1001
UHSS 230830Z 35010G15MPS 1500 1100S R01/1200N SHSN BLSN BKN012CB M04/M05 Q1002 R01/491035 NOSIG RMK MT OBSC QFE750/1000